EDT,Max TemperatureF,Mean TemperatureF,Min TemperatureF,Max Dew PointF,MeanDew PointF,Min DewpointF,Max Humidity, Mean Humidity, Min Humidity, Max Sea Level PressureIn, Mean Sea Level PressureIn, Min Sea Level PressureIn, Max VisibilityMiles, Mean VisibilityMiles, Min VisibilityMiles, Max Wind SpeedMPH, Mean Wind SpeedMPH, Max Gust SpeedMPH,PrecipitationIn, CloudCover, Events, WindDirDegrees
2010-10-1,64,53,42,45,41,37,93,66,37,30.08,30.04,30.00,10,10,7,14,7,22,0.00,1,,319
2010-10-2,53,48,44,50,47,41,100,92,77,30.15,30.01,29.92,10,7,2,12,7,26,0.00,8,Rain,20
2010-10-3,53,45,37,41,37,36,93,77,51,30.32,30.27,30.20,10,10,7,15,6,23,0.00,6,Rain,359
2010-10-4,55,45,35,41,37,34,100,75,47,30.38,30.35,30.29,10,10,10,9,3,16,0.00,3,,4
2010-10-5,62,50,39,41,37,32,93,68,32,30.34,30.30,30.23,10,10,10,13,4,16,0.00,2,,316
2010-10-6,69,54,39,45,40,36,93,63,28,30.19,30.06,29.88,10,10,10,12,4,17,0.00,0,,291
2010-10-7,69,56,44,45,42,36,93,66,30,30.03,29.97,29.89,10,10,10,15,8,23,0.00,0,,288
2010-10-8,77,59,41,46,41,32,100,65,19,30.06,30.03,29.96,10,10,10,18,6,23,0.00,0,,242
2010-10-9,75,60,46,48,42,34,82,53,36,30.05,30.01,29.97,10,10,7,7,3,,0.00,0,,143
2010-10-10,78,64,51,55,53,50,100,76,42,30.02,29.92,29.83,10,9,2,14,4,18,0.00,0,,246
2010-10-11,77,64,50,55,51,48,100,73,39,29.86,29.83,29.78,10,9,2,7,2,,0.00,0,,290
2010-10-12,64,53,42,52,45,36,100,75,34,29.98,29.94,29.87,10,10,7,7,2,,0.00,1,,40
2010-10-13,62,53,44,54,45,43,94,78,48,30.02,30.00,29.98,10,9,3,10,4,,0.00,4,Rain,181
2010-10-14,62,52,41,50,40,32,100,71,32,30.02,29.99,29.88,10,10,10,14,7,18,0.00,2,,297
2010-10-15,60,51,42,43,38,34,93,65,36,30.00,29.88,29.78,10,10,10,15,5,22,0.00,4,,352
2010-10-16,62,48,33,43,38,32,100,71,39,30.14,30.07,29.97,10,10,10,13,4,18,0.00,1,,233
2010-10-17,60,50,41,43,37,27,93,58,27,30.07,30.01,29.93,10,10,10,13,7,20,0.00,0,,281
2010-10-18,55,50,44,37,35,32,76,63,44,30.08,30.03,29.95,10,10,10,7,1,,0.00,7,Rain,302
2010-10-19,59,46,33,37,32,27,93,67,31,29.97,29.94,29.89,10,10,10,15,6,22,0.00,2,,257
2010-10-20,64,52,39,37,34,32,81,56,30,29.90,29.75,29.59,10,10,10,23,8,31,0.00,2,,223
2010-10-21,50,42,35,41,37,32,100,80,50,29.92,29.76,29.61,10,9,4,18,8,28,0.00,4,Rain,279
2010-10-22,64,48,33,36,31,30,93,52,28,30.16,30.09,29.99,10,10,10,12,6,23,0.00,1,,239
2010-10-23,64,55,46,50,39,30,82,52,39,30.07,30.03,29.97,10,10,10,13,2,17,0.00,7,Rain,218
2010-10-24,71,62,53,54,43,36,72,47,35,29.97,29.89,29.75,10,10,10,17,5,23,0.00,4,Rain,183
2010-10-25,71,65,59,59,56,52,94,76,50,29.71,29.62,29.56,10,9,4,14,6,23,0.00,5,Rain,194
2010-10-26,68,64,60,63,56,43,94,78,48,29.59,29.37,29.20,10,10,1,25,14,40,0.00,4,Rain,168
2010-10-27,64,58,51,45,37,27,76,50,26,29.60,29.58,29.55,10,10,10,29,17,43,0.00,1,,203
2010-10-28,53,48,42,41,35,32,87,67,44,30.03,29.84,29.64,10,10,5,30,18,40,0.00,8,Rain,258
2010-10-29,51,46,41,36,30,27,81,60,43,30.26,30.20,30.15,10,10,10,13,9,17,0.00,5,,278
2010-10-30,60,48,37,36,30,27,70,51,31,30.09,29.85,29.65,10,10,10,18,8,28,0.00,0,,224
2010-10-31,48,40,32,37,31,28,93,73,50,30.15,30.04,29.86,10,10,10,13,6,21,0.00,5,,315